sensor_id;sensor_type;location;lat;lon;timestamp;P1;durP1;ratioP1;P2;durP2;ratioP2
77866;SDS011;67271;59.120;37.970;2023-05-07T00:05:16;1.85;;;1.42;;
77866;SDS011;67271;59.120;37.970;2023-05-07T00:07:42;2.67;;;1.75;;
77866;SDS011;67271;59.120;37.970;2023-05-07T00:10:09;3.85;;;2.40;;
77866;SDS011;67271;59.120;37.970;2023-05-07T00:12:37;8.40;;;2.30;;
77866;SDS011;67271;59.120;37.970;2023-05-07T00:15:03;3.03;;;2.05;;
77866;SDS011;67271;59.120;37.970;2023-05-07T00:17:32;3.20;;;1.98;;
77866;SDS011;67271;59.120;37.970;2023-05-07T00:19:58;6.75;;;2.40;;
77866;SDS011;67271;59.120;37.970;2023-05-07T00:22:24;3.13;;;1.90;;
77866;SDS011;67271;59.120;37.970;2023-05-07T00:24:50;5.97;;;2.05;;
77866;SDS011;67271;59.120;37.970;2023-05-07T00:27:16;5.22;;;2.22;;
77866;SDS011;67271;59.120;37.970;2023-05-07T00:29:42;6.63;;;2.75;;
77866;SDS011;67271;59.120;37.970;2023-05-07T00:32:08;2.85;;;1.70;;
77866;SDS011;67271;59.120;37.970;2023-05-07T00:34:34;3.80;;;2.33;;
77866;SDS011;67271;59.120;37.970;2023-05-07T00:37:00;1.77;;;1.45;;
77866;SDS011;67271;59.120;37.970;2023-05-07T00:39:26;2.45;;;2.08;;
77866;SDS011;67271;59.120;37.970;2023-05-07T00:41:52;4.50;;;2.38;;
77866;SDS011;67271;59.120;37.970;2023-05-07T00:44:18;4.18;;;2.65;;
77866;SDS011;67271;59.120;37.970;2023-05-07T00:46:44;3.35;;;2.20;;
77866;SDS011;67271;59.120;37.970;2023-05-07T00:49:10;4.10;;;2.45;;
77866;SDS011;67271;59.120;37.970;2023-05-07T00:51:36;2.47;;;1.88;;
77866;SDS011;67271;59.120;37.970;2023-05-07T00:54:03;3.35;;;2.30;;
77866;SDS011;67271;59.120;37.970;2023-05-07T00:56:29;5.10;;;2.10;;
77866;SDS011;67271;59.120;37.970;2023-05-07T00:58:55;2.83;;;2.22;;
77866;SDS011;67271;59.120;37.970;2023-05-07T01:01:21;4.20;;;2.42;;
77866;SDS011;67271;59.120;37.970;2023-05-07T01:03:47;4.15;;;2.60;;
77866;SDS011;67271;59.120;37.970;2023-05-07T01:06:13;2.22;;;1.60;;
77866;SDS011;67271;59.120;37.970;2023-05-07T01:08:42;3.55;;;2.42;;
77866;SDS011;67271;59.120;37.970;2023-05-07T01:11:08;3.35;;;2.40;;
77866;SDS011;67271;59.120;37.970;2023-05-07T01:13:35;3.83;;;2.58;;
77866;SDS011;67271;59.120;37.970;2023-05-07T01:16:03;8.25;;;2.72;;
77866;SDS011;67271;59.120;37.970;2023-05-07T01:18:29;3.92;;;2.22;;
77866;SDS011;67271;59.120;37.970;2023-05-07T01:20:56;2.38;;;1.52;;
77866;SDS011;67271;59.120;37.970;2023-05-07T01:23:25;3.17;;;2.28;;
77866;SDS011;67271;59.120;37.970;2023-05-07T01:25:53;3.63;;;2.33;;
77866;SDS011;67271;59.120;37.970;2023-05-07T01:28:22;2.58;;;2.10;;
77866;SDS011;67271;59.120;37.970;2023-05-07T01:30:52;5.68;;;2.75;;
77866;SDS011;67271;59.120;37.970;2023-05-07T01:33:22;4.38;;;2.60;;
77866;SDS011;67271;59.120;37.970;2023-05-07T01:35:53;5.00;;;2.20;;
77866;SDS011;67271;59.120;37.970;2023-05-07T01:38:19;4.07;;;2.53;;
77866;SDS011;67271;59.120;37.970;2023-05-07T01:40:48;8.38;;;2.50;;
77866;SDS011;67271;59.120;37.970;2023-05-07T01:43:14;4.63;;;2.45;;
77866;SDS011;67271;59.120;37.970;2023-05-07T01:45:41;3.65;;;2.35;;
77866;SDS011;67271;59.120;37.970;2023-05-07T01:48:07;5.93;;;2.88;;
77866;SDS011;67271;59.120;37.970;2023-05-07T01:50:34;3.08;;;2.10;;
77866;SDS011;67271;59.120;37.970;2023-05-07T01:53:02;3.38;;;2.38;;
77866;SDS011;67271;59.120;37.970;2023-05-07T01:55:28;2.90;;;2.10;;
77866;SDS011;67271;59.120;37.970;2023-05-07T01:57:54;2.67;;;1.75;;
77866;SDS011;67271;59.120;37.970;2023-05-07T02:00:20;3.50;;;2.13;;
77866;SDS011;67271;59.120;37.970;2023-05-07T02:02:46;11.70;;;2.92;;
77866;SDS011;67271;59.120;37.970;2023-05-07T02:05:39;4.00;;;2.47;;
77866;SDS011;67271;59.120;37.970;2023-05-07T02:08:12;6.18;;;2.78;;
77866;SDS011;67271;59.120;37.970;2023-05-07T02:10:38;4.93;;;2.90;;
77866;SDS011;67271;59.120;37.970;2023-05-07T02:13:05;3.90;;;2.53;;
77866;SDS011;67271;59.120;37.970;2023-05-07T02:15:31;3.67;;;2.50;;
77866;SDS011;67271;59.120;37.970;2023-05-07T02:20:28;1.63;;;1.48;;
77866;SDS011;67271;59.120;37.970;2023-05-07T02:22:54;4.72;;;2.67;;
77866;SDS011;67271;59.120;37.970;2023-05-07T02:25:21;5.15;;;2.78;;
77866;SDS011;67271;59.120;37.970;2023-05-07T02:27:47;5.32;;;2.20;;
77866;SDS011;67271;59.120;37.970;2023-05-07T02:30:14;3.97;;;3.05;;
77866;SDS011;67271;59.120;37.970;2023-05-07T02:32:40;3.47;;;2.17;;
77866;SDS011;67271;59.120;37.970;2023-05-07T02:35:06;7.18;;;2.83;;
77866;SDS011;67271;59.120;37.970;2023-05-07T02:37:32;2.33;;;1.88;;
77866;SDS011;67271;59.120;37.970;2023-05-07T02:39:58;4.65;;;2.67;;
77866;SDS011;67271;59.120;37.970;2023-05-07T02:42:24;5.32;;;2.78;;
77866;SDS011;67271;59.120;37.970;2023-05-07T02:44:50;3.03;;;2.00;;
77866;SDS011;67271;59.120;37.970;2023-05-07T02:47:16;3.33;;;2.47;;
77866;SDS011;67271;59.120;37.970;2023-05-07T02:49:43;5.65;;;2.40;;
77866;SDS011;67271;59.120;37.970;2023-05-07T02:52:09;3.30;;;2.50;;
77866;SDS011;67271;59.120;37.970;2023-05-07T02:54:35;3.45;;;2.35;;
77866;SDS011;67271;59.120;37.970;2023-05-07T02:57:01;4.30;;;2.70;;
77866;SDS011;67271;59.120;37.970;2023-05-07T02:59:27;3.20;;;2.47;;
77866;SDS011;67271;59.120;37.970;2023-05-07T03:01:53;6.65;;;2.63;;
77866;SDS011;67271;59.120;37.970;2023-05-07T03:04:20;9.63;;;2.95;;
77866;SDS011;67271;59.120;37.970;2023-05-07T03:06:46;4.18;;;2.90;;
77866;SDS011;67271;59.120;37.970;2023-05-07T03:09:12;4.78;;;2.45;;
77866;SDS011;67271;59.120;37.970;2023-05-07T03:11:38;6.63;;;2.25;;
77866;SDS011;67271;59.120;37.970;2023-05-07T03:14:04;2.60;;;1.95;;
77866;SDS011;67271;59.120;37.970;2023-05-07T03:16:30;3.75;;;2.30;;
77866;SDS011;67271;59.120;37.970;2023-05-07T03:18:56;6.38;;;2.70;;
77866;SDS011;67271;59.120;37.970;2023-05-07T03:21:22;6.88;;;2.80;;
77866;SDS011;67271;59.120;37.970;2023-05-07T03:23:48;8.77;;;3.22;;
77866;SDS011;67271;59.120;37.970;2023-05-07T03:26:14;7.53;;;3.45;;
77866;SDS011;67271;59.120;37.970;2023-05-07T03:28:41;8.98;;;4.38;;
77866;SDS011;67271;59.120;37.970;2023-05-07T03:31:10;6.68;;;3.90;;
77866;SDS011;67271;59.120;37.970;2023-05-07T03:33:38;11.20;;;4.70;;
77866;SDS011;67271;59.120;37.970;2023-05-07T03:36:16;33.85;;;10.07;;
77866;SDS011;67271;59.120;37.970;2023-05-07T03:38:42;21.65;;;7.82;;
77866;SDS011;67271;59.120;37.970;2023-05-07T03:41:08;49.65;;;18.70;;
77866;SDS011;67271;59.120;37.970;2023-05-07T03:43:34;64.55;;;22.20;;
77866;SDS011;67271;59.120;37.970;2023-05-07T03:46:06;43.97;;;16.90;;
77866;SDS011;67271;59.120;37.970;2023-05-07T03:48:31;27.15;;;10.07;;
77866;SDS011;67271;59.120;37.970;2023-05-07T03:50:58;24.85;;;7.80;;
77866;SDS011;67271;59.120;37.970;2023-05-07T03:53:28;26.95;;;8.00;;
77866;SDS011;67271;59.120;37.970;2023-05-07T03:55:54;18.30;;;5.72;;
77866;SDS011;67271;59.120;37.970;2023-05-07T03:58:20;21.80;;;7.53;;
77866;SDS011;67271;59.120;37.970;2023-05-07T04:00:47;20.60;;;8.20;;
77866;SDS011;67271;59.120;37.970;2023-05-07T04:03:22;32.97;;;10.02;;
77866;SDS011;67271;59.120;37.970;2023-05-07T04:05:48;25.85;;;10.90;;
77866;SDS011;67271;59.120;37.970;2023-05-07T04:08:14;17.45;;;7.72;;
77866;SDS011;67271;59.120;37.970;2023-05-07T04:10:45;13.02;;;6.38;;
77866;SDS011;67271;59.120;37.970;2023-05-07T04:13:12;16.65;;;6.75;;
77866;SDS011;67271;59.120;37.970;2023-05-07T04:15:38;14.75;;;4.90;;
77866;SDS011;67271;59.120;37.970;2023-05-07T04:18:08;11.52;;;4.82;;
77866;SDS011;67271;59.120;37.970;2023-05-07T04:20:35;7.28;;;3.20;;
77866;SDS011;67271;59.120;37.970;2023-05-07T04:23:07;7.65;;;3.38;;
77866;SDS011;67271;59.120;37.970;2023-05-07T04:25:33;4.78;;;2.92;;
77866;SDS011;67271;59.120;37.970;2023-05-07T04:28:06;5.68;;;2.78;;
77866;SDS011;67271;59.120;37.970;2023-05-07T04:30:32;11.68;;;2.80;;
77866;SDS011;67271;59.120;37.970;2023-05-07T04:32:58;7.80;;;3.55;;
77866;SDS011;67271;59.120;37.970;2023-05-07T04:35:27;7.07;;;2.97;;
77866;SDS011;67271;59.120;37.970;2023-05-07T04:37:53;5.38;;;2.95;;
77866;SDS011;67271;59.120;37.970;2023-05-07T04:40:18;5.97;;;3.30;;
77866;SDS011;67271;59.120;37.970;2023-05-07T04:42:45;3.80;;;2.38;;
77866;SDS011;67271;59.120;37.970;2023-05-07T04:45:12;3.88;;;2.60;;
77866;SDS011;67271;59.120;37.970;2023-05-07T04:47:40;3.47;;;2.35;;
77866;SDS011;67271;59.120;37.970;2023-05-07T04:50:06;5.13;;;2.75;;
77866;SDS011;67271;59.120;37.970;2023-05-07T04:52:34;6.15;;;2.92;;
77866;SDS011;67271;59.120;37.970;2023-05-07T04:55:00;4.20;;;2.30;;
77866;SDS011;67271;59.120;37.970;2023-05-07T04:59:55;3.72;;;2.20;;
77866;SDS011;67271;59.120;37.970;2023-05-07T05:02:21;4.20;;;2.00;;
77866;SDS011;67271;59.120;37.970;2023-05-07T05:04:47;4.35;;;2.05;;
77866;SDS011;67271;59.120;37.970;2023-05-07T05:07:13;3.53;;;1.85;;
77866;SDS011;67271;59.120;37.970;2023-05-07T05:09:39;2.75;;;1.80;;
77866;SDS011;67271;59.120;37.970;2023-05-07T05:12:05;6.13;;;2.13;;
77866;SDS011;67271;59.120;37.970;2023-05-07T05:14:33;7.85;;;2.22;;
77866;SDS011;67271;59.120;37.970;2023-05-07T05:16:59;3.35;;;1.98;;
77866;SDS011;67271;59.120;37.970;2023-05-07T05:19:25;3.75;;;2.28;;
77866;SDS011;67271;59.120;37.970;2023-05-07T05:21:51;3.80;;;2.70;;
77866;SDS011;67271;59.120;37.970;2023-05-07T05:24:17;8.27;;;2.10;;
77866;SDS011;67271;59.120;37.970;2023-05-07T05:26:43;3.92;;;2.28;;
77866;SDS011;67271;59.120;37.970;2023-05-07T05:29:09;2.40;;;1.90;;
77866;SDS011;67271;59.120;37.970;2023-05-07T05:31:39;4.30;;;2.20;;
77866;SDS011;67271;59.120;37.970;2023-05-07T05:34:05;3.22;;;2.90;;
77866;SDS011;67271;59.120;37.970;2023-05-07T05:36:31;3.70;;;2.38;;
77866;SDS011;67271;59.120;37.970;2023-05-07T05:38:57;3.78;;;2.30;;
77866;SDS011;67271;59.120;37.970;2023-05-07T05:41:23;2.33;;;1.80;;
77866;SDS011;67271;59.120;37.970;2023-05-07T05:43:50;5.25;;;2.00;;
77866;SDS011;67271;59.120;37.970;2023-05-07T05:46:17;2.63;;;1.92;;
77866;SDS011;67271;59.120;37.970;2023-05-07T05:48:43;3.35;;;1.60;;
77866;SDS011;67271;59.120;37.970;2023-05-07T05:51:10;4.25;;;2.30;;
77866;SDS011;67271;59.120;37.970;2023-05-07T05:53:36;4.75;;;2.40;;
77866;SDS011;67271;59.120;37.970;2023-05-07T05:56:02;5.05;;;2.25;;
77866;SDS011;67271;59.120;37.970;2023-05-07T05:58:30;5.63;;;2.92;;
77866;SDS011;67271;59.120;37.970;2023-05-07T06:01:00;3.83;;;2.13;;
77866;SDS011;67271;59.120;37.970;2023-05-07T06:03:29;3.33;;;2.10;;
77866;SDS011;67271;59.120;37.970;2023-05-07T06:05:58;2.00;;;1.70;;
77866;SDS011;67271;59.120;37.970;2023-05-07T06:08:25;2.97;;;1.98;;
77866;SDS011;67271;59.120;37.970;2023-05-07T06:10:54;3.22;;;1.70;;
77866;SDS011;67271;59.120;37.970;2023-05-07T06:13:20;5.55;;;1.80;;
77866;SDS011;67271;59.120;37.970;2023-05-07T06:15:46;2.08;;;1.75;;
77866;SDS011;67271;59.120;37.970;2023-05-07T06:18:13;3.47;;;2.40;;
77866;SDS011;67271;59.120;37.970;2023-05-07T06:20:40;2.60;;;2.08;;
77866;SDS011;67271;59.120;37.970;2023-05-07T06:23:11;2.65;;;2.00;;
77866;SDS011;67271;59.120;37.970;2023-05-07T06:25:37;3.30;;;2.42;;
77866;SDS011;67271;59.120;37.970;2023-05-07T06:28:03;6.20;;;2.33;;
77866;SDS011;67271;59.120;37.970;2023-05-07T06:30:31;2.58;;;1.67;;
77866;SDS011;67271;59.120;37.970;2023-05-07T06:32:57;1.83;;;1.70;;
77866;SDS011;67271;59.120;37.970;2023-05-07T06:35:25;3.95;;;2.45;;
77866;SDS011;67271;59.120;37.970;2023-05-07T06:37:52;2.95;;;2.10;;
77866;SDS011;67271;59.120;37.970;2023-05-07T06:40:22;3.72;;;1.92;;
77866;SDS011;67271;59.120;37.970;2023-05-07T06:42:48;6.75;;;2.47;;
77866;SDS011;67271;59.120;37.970;2023-05-07T06:45:37;5.50;;;2.70;;
77866;SDS011;67271;59.120;37.970;2023-05-07T06:48:04;7.90;;;2.53;;
77866;SDS011;67271;59.120;37.970;2023-05-07T06:50:35;8.40;;;3.40;;
77866;SDS011;67271;59.120;37.970;2023-05-07T06:53:00;4.07;;;2.17;;
77866;SDS011;67271;59.120;37.970;2023-05-07T06:55:28;3.95;;;2.40;;
77866;SDS011;67271;59.120;37.970;2023-05-07T06:57:54;2.17;;;1.80;;
77866;SDS011;67271;59.120;37.970;2023-05-07T07:00:23;3.55;;;2.22;;
77866;SDS011;67271;59.120;37.970;2023-05-07T07:02:53;5.72;;;2.60;;
77866;SDS011;67271;59.120;37.970;2023-05-07T07:05:22;2.70;;;1.90;;
77866;SDS011;67271;59.120;37.970;2023-05-07T07:07:48;2.38;;;1.70;;
77866;SDS011;67271;59.120;37.970;2023-05-07T07:12:48;5.32;;;2.70;;
77866;SDS011;67271;59.120;37.970;2023-05-07T07:15:15;4.53;;;2.17;;
77866;SDS011;67271;59.120;37.970;2023-05-07T07:17:42;7.28;;;2.95;;
77866;SDS011;67271;59.120;37.970;2023-05-07T07:20:07;2.55;;;1.98;;
77866;SDS011;67271;59.120;37.970;2023-05-07T07:22:34;2.13;;;1.38;;
77866;SDS011;67271;59.120;37.970;2023-05-07T07:25:00;3.05;;;1.92;;
77866;SDS011;67271;59.120;37.970;2023-05-07T07:27:26;7.57;;;2.42;;
77866;SDS011;67271;59.120;37.970;2023-05-07T07:29:52;3.72;;;2.00;;
77866;SDS011;67271;59.120;37.970;2023-05-07T07:32:18;4.97;;;2.25;;
77866;SDS011;67271;59.120;37.970;2023-05-07T07:34:44;4.53;;;2.00;;
77866;SDS011;67271;59.120;37.970;2023-05-07T07:37:11;3.92;;;2.70;;
77866;SDS011;67271;59.120;37.970;2023-05-07T07:39:37;3.60;;;2.45;;
77866;SDS011;67271;59.120;37.970;2023-05-07T07:42:04;2.13;;;1.50;;
77866;SDS011;67271;59.120;37.970;2023-05-07T07:44:31;5.63;;;1.50;;
77866;SDS011;67271;59.120;37.970;2023-05-07T07:47:03;2.47;;;1.80;;
77866;SDS011;67271;59.120;37.970;2023-05-07T07:49:29;1.88;;;1.60;;
77866;SDS011;67271;59.120;37.970;2023-05-07T07:51:57;2.20;;;1.73;;
77866;SDS011;67271;59.120;37.970;2023-05-07T07:54:25;7.53;;;2.60;;
77866;SDS011;67271;59.120;37.970;2023-05-07T07:56:51;3.97;;;2.28;;
77866;SDS011;67271;59.120;37.970;2023-05-07T07:59:18;2.47;;;2.00;;
77866;SDS011;67271;59.120;37.970;2023-05-07T08:01:45;5.00;;;2.10;;
77866;SDS011;67271;59.120;37.970;2023-05-07T08:04:13;2.45;;;1.90;;
77866;SDS011;67271;59.120;37.970;2023-05-07T08:06:41;5.07;;;1.95;;
77866;SDS011;67271;59.120;37.970;2023-05-07T08:09:08;2.20;;;1.70;;
77866;SDS011;67271;59.120;37.970;2023-05-07T08:11:35;3.42;;;1.45;;
77866;SDS011;67271;59.120;37.970;2023-05-07T08:14:02;2.20;;;1.42;;
77866;SDS011;67271;59.120;37.970;2023-05-07T08:16:28;1.70;;;1.50;;
77866;SDS011;67271;59.120;37.970;2023-05-07T08:18:54;1.63;;;1.50;;
77866;SDS011;67271;59.120;37.970;2023-05-07T08:21:20;5.10;;;2.20;;
77866;SDS011;67271;59.120;37.970;2023-05-07T08:23:46;2.88;;;2.13;;
77866;SDS011;67271;59.120;37.970;2023-05-07T08:26:12;5.75;;;3.78;;
77866;SDS011;67271;59.120;37.970;2023-05-07T08:28:38;2.80;;;2.13;;
77866;SDS011;67271;59.120;37.970;2023-05-07T08:31:05;2.10;;;1.70;;
77866;SDS011;67271;59.120;37.970;2023-05-07T08:33:34;2.03;;;1.83;;
77866;SDS011;67271;59.120;37.970;2023-05-07T08:36:00;2.50;;;1.95;;
77866;SDS011;67271;59.120;37.970;2023-05-07T08:38:26;2.53;;;1.90;;
77866;SDS011;67271;59.120;37.970;2023-05-07T08:40:52;3.75;;;2.90;;
77866;SDS011;67271;59.120;37.970;2023-05-07T08:43:19;3.20;;;2.40;;
77866;SDS011;67271;59.120;37.970;2023-05-07T08:45:47;3.40;;;1.75;;
77866;SDS011;67271;59.120;37.970;2023-05-07T08:48:19;4.75;;;2.00;;
77866;SDS011;67271;59.120;37.970;2023-05-07T08:50:57;2.25;;;1.77;;
77866;SDS011;67271;59.120;37.970;2023-05-07T08:53:23;3.50;;;1.88;;
77866;SDS011;67271;59.120;37.970;2023-05-07T08:55:51;2.03;;;1.80;;
77866;SDS011;67271;59.120;37.970;2023-05-07T08:58:17;1.65;;;1.55;;
77866;SDS011;67271;59.120;37.970;2023-05-07T09:00:43;3.60;;;1.85;;
77866;SDS011;67271;59.120;37.970;2023-05-07T09:03:10;2.25;;;1.88;;
77866;SDS011;67271;59.120;37.970;2023-05-07T09:05:43;2.25;;;1.70;;
77866;SDS011;67271;59.120;37.970;2023-05-07T09:08:14;2.08;;;1.67;;
77866;SDS011;67271;59.120;37.970;2023-05-07T09:10:41;1.67;;;1.10;;
77866;SDS011;67271;59.120;37.970;2023-05-07T09:13:08;2.10;;;1.70;;
77866;SDS011;67271;59.120;37.970;2023-05-07T09:15:36;1.20;;;1.10;;
77866;SDS011;67271;59.120;37.970;2023-05-07T09:18:02;2.53;;;0.93;;
77866;SDS011;67271;59.120;37.970;2023-05-07T09:20:32;2.03;;;0.88;;
77866;SDS011;67271;59.120;37.970;2023-05-07T09:22:59;2.80;;;2.50;;
77866;SDS011;67271;59.120;37.970;2023-05-07T09:25:29;4.72;;;2.60;;
77866;SDS011;67271;59.120;37.970;2023-05-07T09:27:59;4.18;;;1.95;;
77866;SDS011;67271;59.120;37.970;2023-05-07T09:30:29;4.75;;;1.48;;
77866;SDS011;67271;59.120;37.970;2023-05-07T09:32:58;1.42;;;1.25;;
77866;SDS011;67271;59.120;37.970;2023-05-07T09:35:26;5.93;;;2.05;;
77866;SDS011;67271;59.120;37.970;2023-05-07T09:38:00;2.17;;;1.67;;
77866;SDS011;67271;59.120;37.970;2023-05-07T09:40:28;4.03;;;2.88;;
77866;SDS011;67271;59.120;37.970;2023-05-07T09:43:12;3.72;;;2.42;;
77866;SDS011;67271;59.120;37.970;2023-05-07T09:45:45;1.60;;;1.38;;
77866;SDS011;67271;59.120;37.970;2023-05-07T09:48:17;1.80;;;1.50;;
77866;SDS011;67271;59.120;37.970;2023-05-07T09:50:47;2.30;;;1.40;;
77866;SDS011;67271;59.120;37.970;2023-05-07T09:53:17;1.70;;;1.60;;
77866;SDS011;67271;59.120;37.970;2023-05-07T09:55:43;2.33;;;1.70;;
77866;SDS011;67271;59.120;37.970;2023-05-07T09:58:11;3.80;;;1.88;;
77866;SDS011;67271;59.120;37.970;2023-05-07T10:00:39;4.25;;;1.80;;
77866;SDS011;67271;59.120;37.970;2023-05-07T10:03:09;1.20;;;1.13;;
77866;SDS011;67271;59.120;37.970;2023-05-07T10:08:18;3.30;;;2.13;;
77866;SDS011;67271;59.120;37.970;2023-05-07T10:13:18;2.08;;;1.48;;
77866;SDS011;67271;59.120;37.970;2023-05-07T10:15:47;2.05;;;1.38;;
77866;SDS011;67271;59.120;37.970;2023-05-07T10:18:13;1.23;;;1.13;;
77866;SDS011;67271;59.120;37.970;2023-05-07T10:20:41;5.45;;;1.50;;
77866;SDS011;67271;59.120;37.970;2023-05-07T10:23:12;2.47;;;1.50;;
77866;SDS011;67271;59.120;37.970;2023-05-07T10:25:43;2.60;;;1.27;;
77866;SDS011;67271;59.120;37.970;2023-05-07T10:28:16;1.13;;;1.00;;
77866;SDS011;67271;59.120;37.970;2023-05-07T10:33:36;3.92;;;2.00;;
77866;SDS011;67271;59.120;37.970;2023-05-07T10:36:04;3.15;;;1.75;;
77866;SDS011;67271;59.120;37.970;2023-05-07T10:38:33;2.58;;;1.20;;
77866;SDS011;67271;59.120;37.970;2023-05-07T10:41:00;1.58;;;1.00;;
77866;SDS011;67271;59.120;37.970;2023-05-07T10:43:39;2.60;;;1.52;;
77866;SDS011;67271;59.120;37.970;2023-05-07T10:46:15;2.45;;;1.77;;
77866;SDS011;67271;59.120;37.970;2023-05-07T10:51:35;1.20;;;1.10;;
77866;SDS011;67271;59.120;37.970;2023-05-07T10:56:36;2.10;;;1.35;;
77866;SDS011;67271;59.120;37.970;2023-05-07T11:01:56;2.30;;;1.58;;
77866;SDS011;67271;59.120;37.970;2023-05-07T11:04:36;3.85;;;1.95;;
77866;SDS011;67271;59.120;37.970;2023-05-07T11:12:46;1.40;;;1.30;;
77866;SDS011;67271;59.120;37.970;2023-05-07T11:15:33;0.95;;;0.95;;
77866;SDS011;67271;59.120;37.970;2023-05-07T11:18:02;0.88;;;0.88;;
77866;SDS011;67271;59.120;37.970;2023-05-07T11:20:52;1.58;;;0.80;;
77866;SDS011;67271;59.120;37.970;2023-05-07T11:26:27;2.40;;;1.42;;
77866;SDS011;67271;59.120;37.970;2023-05-07T11:28:54;0.55;;;0.55;;
77866;SDS011;67271;59.120;37.970;2023-05-07T11:31:22;2.40;;;1.00;;
77866;SDS011;67271;59.120;37.970;2023-05-07T11:33:51;2.42;;;2.28;;
77866;SDS011;67271;59.120;37.970;2023-05-07T11:36:21;1.88;;;1.08;;
77866;SDS011;67271;59.120;37.970;2023-05-07T11:38:51;2.45;;;1.27;;
77866;SDS011;67271;59.120;37.970;2023-05-07T11:41:17;0.70;;;0.68;;
77866;SDS011;67271;59.120;37.970;2023-05-07T11:43:57;1.40;;;1.10;;
77866;SDS011;67271;59.120;37.970;2023-05-07T11:46:25;2.60;;;2.00;;
77866;SDS011;67271;59.120;37.970;2023-05-07T11:48:51;1.45;;;0.90;;
77866;SDS011;67271;59.120;37.970;2023-05-07T11:51:21;0.70;;;0.70;;
77866;SDS011;67271;59.120;37.970;2023-05-07T11:53:48;1.60;;;1.25;;
77866;SDS011;67271;59.120;37.970;2023-05-07T11:56:16;2.22;;;1.38;;
77866;SDS011;67271;59.120;37.970;2023-05-07T11:58:43;1.38;;;1.08;;
77866;SDS011;67271;59.120;37.970;2023-05-07T12:01:11;0.80;;;0.80;;
77866;SDS011;67271;59.120;37.970;2023-05-07T12:03:41;2.80;;;1.33;;
77866;SDS011;67271;59.120;37.970;2023-05-07T12:06:09;0.40;;;0.30;;
77866;SDS011;67271;59.120;37.970;2023-05-07T12:08:37;1.00;;;0.93;;
77866;SDS011;67271;59.120;37.970;2023-05-07T12:11:06;0.70;;;0.70;;
77866;SDS011;67271;59.120;37.970;2023-05-07T12:13:34;1.92;;;1.30;;
77866;SDS011;67271;59.120;37.970;2023-05-07T12:15:59;0.75;;;0.75;;
77866;SDS011;67271;59.120;37.970;2023-05-07T12:18:28;0.70;;;0.70;;
77866;SDS011;67271;59.120;37.970;2023-05-07T12:20:55;2.15;;;0.95;;
77866;SDS011;67271;59.120;37.970;2023-05-07T12:23:21;1.65;;;1.13;;
77866;SDS011;67271;59.120;37.970;2023-05-07T12:25:48;1.27;;;1.17;;
77866;SDS011;67271;59.120;37.970;2023-05-07T12:28:14;1.83;;;1.10;;
77866;SDS011;67271;59.120;37.970;2023-05-07T12:30:45;1.52;;;1.20;;
77866;SDS011;67271;59.120;37.970;2023-05-07T12:33:15;1.45;;;1.08;;
77866;SDS011;67271;59.120;37.970;2023-05-07T12:35:49;1.83;;;1.20;;
77866;SDS011;67271;59.120;37.970;2023-05-07T12:38:15;2.75;;;1.35;;
77866;SDS011;67271;59.120;37.970;2023-05-07T12:40:49;1.58;;;0.95;;
77866;SDS011;67271;59.120;37.970;2023-05-07T12:43:19;1.42;;;1.08;;
77866;SDS011;67271;59.120;37.970;2023-05-07T12:45:47;2.05;;;1.08;;
77866;SDS011;67271;59.120;37.970;2023-05-07T12:48:15;0.80;;;0.77;;
77866;SDS011;67271;59.120;37.970;2023-05-07T12:50:41;2.78;;;1.50;;
77866;SDS011;67271;59.120;37.970;2023-05-07T12:53:09;1.13;;;1.05;;
77866;SDS011;67271;59.120;37.970;2023-05-07T12:55:44;3.50;;;1.40;;
77866;SDS011;67271;59.120;37.970;2023-05-07T12:58:28;1.15;;;1.10;;
77866;SDS011;67271;59.120;37.970;2023-05-07T13:00:56;8.18;;;2.20;;
77866;SDS011;67271;59.120;37.970;2023-05-07T13:03:26;2.25;;;1.20;;
77866;SDS011;67271;59.120;37.970;2023-05-07T13:05:55;2.38;;;1.75;;
77866;SDS011;67271;59.120;37.970;2023-05-07T13:08:24;3.65;;;1.30;;
77866;SDS011;67271;59.120;37.970;2023-05-07T13:10:51;1.15;;;1.05;;
77866;SDS011;67271;59.120;37.970;2023-05-07T13:13:17;2.58;;;1.40;;
77866;SDS011;67271;59.120;37.970;2023-05-07T13:15:43;1.50;;;1.30;;
77866;SDS011;67271;59.120;37.970;2023-05-07T13:18:09;3.08;;;1.40;;
77866;SDS011;67271;59.120;37.970;2023-05-07T13:20:36;1.27;;;1.17;;
77866;SDS011;67271;59.120;37.970;2023-05-07T13:23:02;1.88;;;1.10;;
77866;SDS011;67271;59.120;37.970;2023-05-07T13:25:30;1.50;;;1.38;;
77866;SDS011;67271;59.120;37.970;2023-05-07T13:27:59;2.83;;;1.25;;
77866;SDS011;67271;59.120;37.970;2023-05-07T13:30:25;2.33;;;1.38;;
77866;SDS011;67271;59.120;37.970;2023-05-07T13:32:51;6.15;;;1.33;;
77866;SDS011;67271;59.120;37.970;2023-05-07T13:35:20;4.03;;;1.50;;
77866;SDS011;67271;59.120;37.970;2023-05-07T13:37:46;1.58;;;1.08;;
77866;SDS011;67271;59.120;37.970;2023-05-07T13:40:14;4.20;;;1.25;;
77866;SDS011;67271;59.120;37.970;2023-05-07T13:42:40;1.65;;;1.25;;
77866;SDS011;67271;59.120;37.970;2023-05-07T13:45:07;3.30;;;1.50;;
77866;SDS011;67271;59.120;37.970;2023-05-07T13:47:33;1.30;;;1.20;;
77866;SDS011;67271;59.120;37.970;2023-05-07T13:49:59;1.40;;;1.27;;
77866;SDS011;67271;59.120;37.970;2023-05-07T13:52:25;1.48;;;0.98;;
77866;SDS011;67271;59.120;37.970;2023-05-07T13:54:51;0.68;;;0.68;;
77866;SDS011;67271;59.120;37.970;2023-05-07T13:57:21;1.05;;;0.57;;
77866;SDS011;67271;59.120;37.970;2023-05-07T13:59:47;1.10;;;1.00;;
77866;SDS011;67271;59.120;37.970;2023-05-07T14:02:13;4.65;;;1.05;;
77866;SDS011;67271;59.120;37.970;2023-05-07T14:04:39;1.30;;;1.20;;
77866;SDS011;67271;59.120;37.970;2023-05-07T14:07:05;1.35;;;1.10;;
77866;SDS011;67271;59.120;37.970;2023-05-07T14:09:31;1.77;;;1.25;;
77866;SDS011;67271;59.120;37.970;2023-05-07T14:11:56;3.60;;;1.45;;
77866;SDS011;67271;59.120;37.970;2023-05-07T14:14:22;1.00;;;1.00;;
77866;SDS011;67271;59.120;37.970;2023-05-07T14:16:48;2.03;;;1.77;;
77866;SDS011;67271;59.120;37.970;2023-05-07T14:19:14;3.38;;;1.50;;
77866;SDS011;67271;59.120;37.970;2023-05-07T14:21:40;1.10;;;1.10;;
77866;SDS011;67271;59.120;37.970;2023-05-07T14:24:07;6.97;;;1.50;;
77866;SDS011;67271;59.120;37.970;2023-05-07T14:26:35;1.85;;;1.65;;
77866;SDS011;67271;59.120;37.970;2023-05-07T14:29:02;2.40;;;1.40;;
77866;SDS011;67271;59.120;37.970;2023-05-07T14:31:28;3.25;;;1.50;;
77866;SDS011;67271;59.120;37.970;2023-05-07T14:33:54;1.67;;;1.35;;
77866;SDS011;67271;59.120;37.970;2023-05-07T14:36:20;2.10;;;1.30;;
77866;SDS011;67271;59.120;37.970;2023-05-07T14:38:48;1.48;;;1.38;;
77866;SDS011;67271;59.120;37.970;2023-05-07T14:41:14;1.85;;;1.30;;
77866;SDS011;67271;59.120;37.970;2023-05-07T14:43:42;2.15;;;1.20;;
77866;SDS011;67271;59.120;37.970;2023-05-07T14:46:09;2.97;;;1.50;;
77866;SDS011;67271;59.120;37.970;2023-05-07T14:48:35;2.90;;;1.80;;
77866;SDS011;67271;59.120;37.970;2023-05-07T14:51:00;4.65;;;2.10;;
77866;SDS011;67271;59.120;37.970;2023-05-07T14:53:26;2.95;;;2.20;;
77866;SDS011;67271;59.120;37.970;2023-05-07T14:55:52;3.42;;;2.38;;
77866;SDS011;67271;59.120;37.970;2023-05-07T14:58:18;3.65;;;2.75;;
77866;SDS011;67271;59.120;37.970;2023-05-07T15:00:44;6.50;;;2.90;;
77866;SDS011;67271;59.120;37.970;2023-05-07T15:03:10;2.38;;;2.15;;
77866;SDS011;67271;59.120;37.970;2023-05-07T15:05:40;6.63;;;1.80;;
77866;SDS011;67271;59.120;37.970;2023-05-07T15:08:06;1.50;;;1.40;;
77866;SDS011;67271;59.120;37.970;2023-05-07T15:10:34;1.88;;;1.40;;
77866;SDS011;67271;59.120;37.970;2023-05-07T15:13:09;12.95;;;2.20;;